Time;durP1;ratioP1;P1;durP2;ratioP2;P2;SDS_P1;SDS_P2;PMS_P1;PMS_P2;Temp;Humidity;BMP_temperature;BMP_pressure;BME280_temperature;BME280_humidity;BME280_pressure;Samples;Min_cycle;Max_cycle;Signal;HPM_P1;HPM_P2
2023/02/01 00:00:11;;;;;;;24.93;8.37;;;8.30;99.90;;;;;;6216110;23;20165;-86
2023/02/01 00:02:40;;;;;;;13.47;7.20;;;8.30;99.90;;;;;;6217821;23;20192;-86
2023/02/01 00:05:07;;;;;;;22.03;7.53;;;8.40;99.90;;;;;;6216945;23;20136;-78
2023/02/01 00:07:34;;;;;;;19.70;7.43;;;8.40;99.90;;;;;;6213046;23;20179;-78
2023/02/01 00:10:01;;;;;;;21.43;8.27;;;8.50;99.90;;;;;;6214401;23;20134;-78
2023/02/01 00:12:26;;;;;;;24.73;7.43;;;8.50;99.90;;;;;;6213508;23;20142;-78
2023/02/01 00:14:52;;;;;;;23.93;8.07;;;8.50;99.90;;;;;;6212855;23;20539;-78
2023/02/01 00:17:18;;;;;;;21.93;6.93;;;8.40;99.90;;;;;;6213086;23;20179;-78
2023/02/01 00:19:43;;;;;;;22.53;8.13;;;8.30;99.90;;;;;;6214541;23;20464;-79
2023/02/01 00:22:09;;;;;;;21.27;7.50;;;8.30;99.90;;;;;;6213794;23;20154;-79
2023/02/01 00:24:34;;;;;;;20.97;7.73;;;8.40;99.90;;;;;;6213224;23;20150;-79
2023/02/01 00:27:00;;;;;;;22.47;7.83;;;8.50;99.90;;;;;;6212877;23;20196;-77
2023/02/01 00:29:26;;;;;;;23.80;8.30;;;8.30;99.90;;;;;;6212579;23;20177;-79
2023/02/01 00:31:52;;;;;;;19.80;7.17;;;8.40;99.90;;;;;;6212770;23;20204;-79
2023/02/01 00:34:18;;;;;;;21.87;7.60;;;8.40;99.90;;;;;;6213120;23;20146;-79
2023/02/01 00:36:44;;;;;;;20.03;6.77;;;8.50;99.90;;;;;;6213228;23;20539;-77
2023/02/01 00:39:11;;;;;;;13.33;5.83;;;8.40;99.90;;;;;;6212545;23;20154;-79
2023/02/01 00:41:37;;;;;;;17.30;6.10;;;8.50;99.90;;;;;;6212944;23;20297;-77
2023/02/01 00:44:03;;;;;;;18.10;6.10;;;8.50;99.90;;;;;;6212659;23;20177;-78
2023/02/01 00:46:30;;;;;;;19.33;6.60;;;8.60;99.90;;;;;;6212274;23;20529;-79
2023/02/01 00:48:56;;;;;;;22.70;6.30;;;8.40;99.90;;;;;;6213273;23;20656;-77
2023/02/01 00:51:25;;;;;;;15.17;5.37;;;8.40;99.90;;;;;;6214825;23;20162;-77
2023/02/01 00:53:52;;;;;;;15.67;5.40;;;8.40;99.90;;;;;;6215353;23;20142;-79
2023/02/01 00:56:19;;;;;;;18.40;5.23;;;8.40;99.90;;;;;;6214646;23;20153;-79
2023/02/01 00:58:45;;;;;;;16.10;5.10;;;8.40;99.90;;;;;;6214340;23;20157;-77
2023/02/01 01:01:14;;;;;;;19.87;4.80;;;8.40;99.90;;;;;;6214606;23;20564;-78
2023/02/01 01:03:42;;;;;;;19.73;5.30;;;8.40;99.90;;;;;;6216068;23;20144;-78
2023/02/01 01:06:12;;;;;;;18.50;4.70;;;8.40;99.90;;;;;;6216031;23;20213;-78
2023/02/01 01:08:38;;;;;;;22.93;5.37;;;8.40;99.90;;;;;;6216120;23;20151;-78
2023/02/01 01:11:15;;;;;;;19.83;4.67;;;8.40;99.90;;;;;;6216292;23;20206;-78
2023/02/01 01:13:41;;;;;;;20.13;4.80;;;8.40;99.90;;;;;;6216127;23;20618;-78
2023/02/01 01:16:08;;;;;;;20.20;4.63;;;8.40;99.90;;;;;;6215090;23;20151;-78
2023/02/01 01:18:35;;;;;;;21.33;5.40;;;8.30;99.90;;;;;;6216329;23;20139;-78
2023/02/01 01:21:04;;;;;;;17.20;5.27;;;8.30;99.90;;;;;;6215840;23;20581;-78
2023/02/01 01:23:29;;;;;;;14.77;4.40;;;8.30;99.90;;;;;;6216243;23;20207;-78
2023/02/01 01:25:56;;;;;;;14.60;4.10;;;8.40;99.90;;;;;;6214634;23;20596;-78
2023/02/01 01:28:22;;;;;;;20.87;5.57;;;8.30;99.90;;;;;;6214496;23;20231;-77
2023/02/01 01:30:48;;;;;;;17.83;4.93;;;8.40;99.90;;;;;;6214566;23;20196;-77
2023/02/01 01:33:14;;;;;;;19.83;4.70;;;8.40;99.90;;;;;;6214432;23;20149;-79
2023/02/01 01:35:42;;;;;;;19.67;6.83;;;8.40;99.90;;;;;;6215014;23;20188;-79
2023/02/01 01:38:11;;;;;;;21.87;6.07;;;8.40;99.90;;;;;;6215119;23;20151;-79
2023/02/01 01:40:36;;;;;;;23.03;8.10;;;8.40;99.90;;;;;;6214357;23;20218;-77
2023/02/01 01:43:02;;;;;;;24.83;6.40;;;8.30;99.90;;;;;;6214442;23;20199;-77
2023/02/01 01:45:32;;;;;;;20.87;6.57;;;8.20;99.90;;;;;;6215842;23;20264;-77
2023/02/01 01:48:08;;;;;;;25.10;6.10;;;8.20;99.90;;;;;;6216503;23;20188;-77
2023/02/01 01:50:39;;;;;;;20.73;6.50;;;8.30;99.90;;;;;;6214706;23;20466;-77
2023/02/01 01:53:11;;;;;;;20.30;5.70;;;8.30;99.90;;;;;;6214256;23;20183;-77
2023/02/01 01:55:42;;;;;;;17.73;6.20;;;8.20;99.90;;;;;;6216132;23;20132;-77
2023/02/01 01:58:13;;;;;;;23.37;4.80;;;8.20;99.90;;;;;;6213906;23;20585;-79
2023/02/01 02:00:40;;;;;;;15.00;4.50;;;8.10;99.90;;;;;;6215377;23;20131;-78
2023/02/01 02:03:13;;;;;;;18.50;4.90;;;8.20;99.90;;;;;;6215555;23;20135;-78
2023/02/01 02:05:38;;;;;;;20.20;4.37;;;8.20;99.90;;;;;;6215341;23;20142;-78
2023/02/01 02:08:04;;;;;;;14.13;3.67;;;8.10;99.90;;;;;;6215736;23;20206;-78
2023/02/01 02:13:17;;;;;;;11.50;3.73;;;7.90;99.90;;;;;;6216344;23;20575;-78
2023/02/01 02:16:16;;;;;;;13.53;3.37;;;7.90;99.90;;;;;;6216404;23;20135;-78
2023/02/01 02:18:48;;;;;;;11.47;3.37;;;7.90;99.90;;;;;;6213777;23;20221;-78
2023/02/01 02:21:44;;;;;;;13.80;3.40;;;7.80;99.90;;;;;;6213846;23;20441;-78
2023/02/01 02:24:55;;;;;;;14.37;3.37;;;7.70;99.90;;;;;;6213900;23;20572;-78
2023/02/01 02:27:36;;;;;;;15.93;3.40;;;7.70;99.90;;;;;;6215214;23;20171;-78
2023/02/01 02:30:30;;;;;;;14.23;3.50;;;7.80;99.90;;;;;;6216011;23;20139;-78
2023/02/01 02:33:14;;;;;;;16.27;3.40;;;7.90;99.90;;;;;;6215220;23;20300;-78
2023/02/01 02:36:08;;;;;;;13.53;3.10;;;7.80;99.90;;;;;;6215405;23;20137;-79
2023/02/01 02:38:49;;;;;;;18.17;3.53;;;7.80;99.90;;;;;;6236324;23;20154;-79
2023/02/01 02:47:31;;;;;;;16.37;3.03;;;7.50;99.90;;;;;;6214792;23;20560;-78
2023/02/01 02:55:45;;;;;;;19.20;4.03;;;7.60;99.90;;;;;;6215053;23;20169;-78
2023/02/01 03:04:08;;;;;;;16.67;4.27;;;7.60;99.90;;;;;;6215049;23;20165;-78
2023/02/01 03:06:34;;;;;;;17.53;4.47;;;7.70;99.90;;;;;;6215028;23;20162;-78
2023/02/01 03:09:04;;;;;;;15.27;3.73;;;7.70;99.90;;;;;;6214888;23;20521;-78
2023/02/01 03:14:20;;;;;;;13.87;3.50;;;7.70;99.90;;;;;;6213603;23;20151;-78
2023/02/01 03:16:58;;;;;;;17.20;3.37;;;7.70;99.90;;;;;;6215330;23;20212;-78
2023/02/01 03:19:31;;;;;;;16.40;3.60;;;7.60;99.90;;;;;;6213280;23;20155;-78
2023/02/01 03:22:02;;;;;;;9.03;3.13;;;7.70;99.90;;;;;;6213761;23;20224;-78
2023/02/01 03:24:38;;;;;;;16.77;3.63;;;7.70;99.90;;;;;;6214891;23;20134;-78
2023/02/01 03:27:19;;;;;;;15.63;3.73;;;7.70;99.90;;;;;;6213514;23;20172;-78
2023/02/01 03:30:25;;;;;;;13.43;3.40;;;7.50;99.90;;;;;;6213439;23;20554;-78
2023/02/01 03:33:00;;;;;;;24.60;4.03;;;7.40;99.90;;;;;;6212958;23;20155;-78
2023/02/01 03:35:49;;;;;;;14.17;2.80;;;7.30;99.90;;;;;;6213521;23;20150;-78
2023/02/01 03:38:39;;;;;;;17.60;3.47;;;7.40;99.90;;;;;;6214677;23;20126;-78
2023/02/01 03:41:41;;;;;;;16.23;3.23;;;7.40;99.90;;;;;;6215139;23;20134;-78
2023/02/01 03:44:24;;;;;;;15.97;3.57;;;7.50;99.90;;;;;;6214303;23;20167;-78
2023/02/01 03:46:55;;;;;;;16.93;3.70;;;7.30;99.90;;;;;;6214846;23;20245;-78
2023/02/01 03:49:37;;;;;;;15.00;3.47;;;7.30;99.90;;;;;;6214731;23;20133;-78
2023/02/01 03:52:06;;;;;;;20.73;3.57;;;7.30;99.90;;;;;;6213298;23;20240;-78
2023/02/01 03:54:33;;;;;;;12.60;3.63;;;7.40;99.90;;;;;;6212668;23;20158;-78
2023/02/01 03:57:05;;;;;;;17.07;3.00;;;7.30;99.90;;;;;;6213524;23;20158;-78
2023/02/01 03:59:31;;;;;;;18.60;3.73;;;7.30;99.90;;;;;;6212785;23;20152;-78
2023/02/01 04:01:57;;;;;;;12.17;3.07;;;7.20;99.90;;;;;;6214903;23;20250;-78
2023/02/01 04:04:23;;;;;;;23.17;3.90;;;7.40;99.90;;;;;;6213044;23;20148;-78
2023/02/01 04:06:50;;;;;;;17.87;3.80;;;7.30;99.90;;;;;;6213146;23;20256;-78
2023/02/01 04:09:17;;;;;;;16.90;3.47;;;7.30;99.90;;;;;;6212737;23;20147;-78
2023/02/01 04:11:42;;;;;;;14.87;3.17;;;7.20;99.90;;;;;;6214301;23;20129;-78
2023/02/01 04:14:08;;;;;;;14.37;3.13;;;7.20;99.90;;;;;;6212922;23;20235;-78
2023/02/01 04:16:34;;;;;;;19.20;4.17;;;7.20;99.90;;;;;;6213048;23;20176;-78
2023/02/01 04:19:01;;;;;;;19.97;3.73;;;7.10;99.90;;;;;;6213130;23;20218;-78
2023/02/01 04:21:27;;;;;;;22.93;4.13;;;7.10;99.90;;;;;;6214576;23;20144;-78
2023/02/01 04:23:53;;;;;;;22.77;4.13;;;7.10;99.90;;;;;;6213082;23;20205;-77
2023/02/01 04:26:20;;;;;;;22.87;4.30;;;7.10;99.90;;;;;;6216675;23;20162;-77
2023/02/01 04:28:49;;;;;;;17.77;3.87;;;7.10;99.90;;;;;;6216610;23;20151;-78
2023/02/01 04:31:16;;;;;;;21.43;3.47;;;7.20;99.90;;;;;;6215477;23;20157;-78
2023/02/01 04:33:42;;;;;;;16.60;3.27;;;7.00;99.90;;;;;;6214777;23;20204;-78
2023/02/01 04:36:08;;;;;;;15.80;3.00;;;6.90;99.90;;;;;;6215334;23;20150;-78
2023/02/01 04:38:33;;;;;;;13.87;3.20;;;7.00;99.90;;;;;;6214779;23;20161;-78
2023/02/01 04:41:00;;;;;;;18.17;3.10;;;6.90;99.90;;;;;;6216253;23;20146;-79
2023/02/01 04:43:26;;;;;;;17.63;3.30;;;6.90;99.90;;;;;;6215656;23;20160;-78
2023/02/01 04:45:52;;;;;;;21.47;3.80;;;7.00;99.90;;;;;;6216358;23;20649;-78
2023/02/01 04:48:18;;;;;;;17.47;3.40;;;6.90;99.90;;;;;;6216913;23;20208;-78
2023/02/01 04:50:47;;;;;;;19.43;3.37;;;7.00;99.90;;;;;;6214536;23;20162;-78
2023/02/01 04:53:15;;;;;;;11.60;2.70;;;6.90;99.90;;;;;;6216615;23;20133;-78
2023/02/01 04:55:41;;;;;;;15.50;3.60;;;6.80;99.90;;;;;;6214869;23;20141;-77
2023/02/01 04:58:07;;;;;;;17.67;3.97;;;6.80;99.90;;;;;;6216562;23;20507;-77
2023/02/01 05:00:33;;;;;;;12.10;3.17;;;6.80;99.90;;;;;;6216040;23;20194;-77
2023/02/01 05:02:59;;;;;;;16.40;3.10;;;6.90;99.90;;;;;;6216881;23;20142;-76
2023/02/01 05:05:27;;;;;;;14.30;3.13;;;6.80;99.90;;;;;;6214507;23;20533;-78
2023/02/01 05:07:52;;;;;;;18.43;3.60;;;6.70;99.90;;;;;;6216348;23;20161;-78
2023/02/01 05:10:18;;;;;;;18.80;3.50;;;6.70;99.90;;;;;;6216036;23;20130;-78
2023/02/01 05:15:30;;;;;;;13.47;2.87;;;6.70;99.90;;;;;;6216301;23;20236;-77
2023/02/01 05:17:56;;;;;;;15.37;3.13;;;6.70;99.90;;;;;;6216398;23;20139;-78
2023/02/01 05:20:22;;;;;;;11.03;3.03;;;6.40;99.90;;;;;;6216014;23;20575;-78
2023/02/01 05:22:47;;;;;;;16.37;3.80;;;6.50;99.90;;;;;;6217635;23;20141;-78
2023/02/01 05:25:13;;;;;;;20.07;3.50;;;6.40;99.90;;;;;;6215047;23;20216;-77
2023/02/01 05:27:41;;;;;;;11.90;2.37;;;6.40;99.90;;;;;;6216918;23;20169;-77
2023/02/01 05:30:08;;;;;;;14.80;2.87;;;6.40;99.90;;;;;;6214933;23;20154;-77
2023/02/01 05:32:35;;;;;;;15.43;3.27;;;6.50;99.90;;;;;;6216278;23;20169;-78
2023/02/01 05:35:01;;;;;;;15.57;3.10;;;6.50;99.90;;;;;;6213808;23;20148;-77
2023/02/01 05:37:26;;;;;;;19.53;3.33;;;6.40;99.90;;;;;;6214270;23;20146;-78
2023/02/01 05:39:52;;;;;;;21.83;3.53;;;6.30;99.90;;;;;;6214268;23;20234;-77
2023/02/01 05:42:18;;;;;;;18.50;3.20;;;6.40;99.90;;;;;;6216134;23;20580;-77
2023/02/01 05:44:43;;;;;;;20.47;4.00;;;6.50;99.90;;;;;;6214163;23;20155;-77
2023/02/01 05:47:10;;;;;;;16.40;3.00;;;6.40;99.90;;;;;;6216121;23;20168;-77
2023/02/01 05:49:49;;;;;;;17.27;3.00;;;6.30;99.90;;;;;;6215601;23;20235;-77
2023/02/01 05:52:19;;;;;;;18.20;3.73;;;6.40;99.90;;;;;;6214858;23;20173;-78
2023/02/01 05:54:45;;;;;;;14.57;3.30;;;6.30;99.90;;;;;;6214122;23;20148;-77
2023/02/01 05:57:12;;;;;;;19.10;3.30;;;6.20;99.90;;;;;;6214139;23;20145;-79
2023/02/01 05:59:40;;;;;;;16.07;3.13;;;6.10;99.90;;;;;;6214335;23;20172;-78
2023/02/01 06:02:09;;;;;;;19.53;3.60;;;6.10;99.90;;;;;;6216129;23;20222;-78
2023/02/01 06:04:36;;;;;;;14.50;3.50;;;6.10;99.90;;;;;;6216383;23;20132;-77
2023/02/01 06:07:02;;;;;;;18.60;3.73;;;6.10;99.90;;;;;;6213916;23;20258;-77
2023/02/01 06:09:28;;;;;;;17.27;3.03;;;6.00;99.90;;;;;;6214426;23;20167;-78
2023/02/01 06:11:54;;;;;;;19.00;3.03;;;6.00;99.90;;;;;;6216284;23;20570;-76
2023/02/01 06:14:20;;;;;;;17.03;3.03;;;5.90;99.90;;;;;;6216221;23;20162;-79
2023/02/01 06:16:46;;;;;;;15.63;2.77;;;5.80;99.90;;;;;;6213835;23;20226;-78
2023/02/01 06:19:12;;;;;;;17.77;3.53;;;5.90;99.90;;;;;;6213872;23;20159;-77
2023/02/01 06:21:38;;;;;;;12.00;3.23;;;6.00;99.90;;;;;;6214259;23;20191;-77
2023/02/01 06:24:03;;;;;;;17.13;4.13;;;5.90;99.90;;;;;;6215096;23;20137;-77
2023/02/01 06:26:30;;;;;;;12.90;3.40;;;5.90;99.90;;;;;;6215132;23;20169;-79
2023/02/01 06:29:06;;;;;;;15.63;3.27;;;6.00;99.90;;;;;;6214115;23;20190;-76
2023/02/01 06:31:34;;;;;;;18.97;3.47;;;6.10;99.90;;;;;;6216029;23;20876;-77
2023/02/01 06:34:00;;;;;;;26.33;4.50;;;6.10;99.90;;;;;;6215765;23;20217;-78
2023/02/01 06:36:26;;;;;;;26.20;4.33;;;6.10;99.90;;;;;;6214599;23;20176;-77
2023/02/01 06:38:56;;;;;;;22.13;3.33;;;6.10;99.90;;;;;;6214180;23;20534;-78
2023/02/01 06:41:23;;;;;;;17.60;3.93;;;6.00;99.90;;;;;;6215764;23;20141;-76
2023/02/01 06:43:54;;;;;;;20.23;3.07;;;6.00;99.90;;;;;;6214358;23;20208;-77
2023/02/01 06:46:23;;;;;;;14.47;3.60;;;6.10;99.90;;;;;;6214373;23;20276;-79
2023/02/01 06:48:53;;;;;;;20.30;3.00;;;6.20;99.90;;;;;;6215062;23;20130;-78
2023/02/01 06:51:22;;;;;;;18.90;4.00;;;6.00;99.90;;;;;;6214103;23;20166;-78
2023/02/01 06:53:50;;;;;;;14.47;3.57;;;5.90;99.90;;;;;;6213859;23;20169;-78
2023/02/01 06:56:18;;;;;;;9.33;2.73;;;6.00;99.90;;;;;;6215493;23;20126;-78
2023/02/01 06:58:46;;;;;;;21.67;4.27;;;6.20;99.90;;;;;;6213778;23;20143;-77
2023/02/01 07:01:12;;;;;;;17.60;3.33;;;6.30;99.90;;;;;;6214174;23;20132;-78
2023/02/01 07:03:39;;;;;;;20.40;4.30;;;6.10;99.90;;;;;;6215089;23;20140;-77
2023/02/01 07:06:18;;;;;;;18.80;4.43;;;6.00;99.90;;;;;;6211536;23;20216;-77
2023/02/01 07:08:55;;;;;;;17.57;3.30;;;6.00;99.90;;;;;;6210993;23;20577;-77
2023/02/01 07:11:23;;;;;;;21.20;3.13;;;6.20;99.90;;;;;;6214554;23;20142;-77
2023/02/01 07:13:49;;;;;;;20.77;4.53;;;6.10;99.90;;;;;;6223967;23;20155;-77
2023/02/01 07:16:18;;;;;;;18.90;3.47;;;6.00;99.90;;;;;;6215068;23;20149;-78
2023/02/01 07:18:52;;;;;;;17.63;4.00;;;6.00;99.90;;;;;;6215983;23;20140;-78
2023/02/01 07:21:20;;;;;;;25.07;4.20;;;6.00;99.90;;;;;;6214639;23;20151;-78
2023/02/01 07:23:47;;;;;;;19.23;4.50;;;5.90;99.90;;;;;;6213384;23;20143;-78
2023/02/01 07:26:31;;;;;;;18.67;3.87;;;5.90;99.90;;;;;;6207743;23;20179;-78
2023/02/01 07:28:57;;;;;;;16.10;3.23;;;5.90;99.90;;;;;;6217952;23;20161;-78
2023/02/01 07:31:40;;;;;;;25.30;3.70;;;6.00;99.90;;;;;;6211842;23;20534;-78
2023/02/01 07:34:36;;;;;;;18.83;3.90;;;5.80;99.90;;;;;;6210003;23;20152;-76
2023/02/01 07:37:03;;;;;;;14.90;3.37;;;5.90;99.90;;;;;;6212647;23;20543;-76
2023/02/01 07:39:31;;;;;;;20.57;4.17;;;6.00;99.90;;;;;;6213545;23;20148;-76
2023/02/01 07:41:57;;;;;;;17.20;3.40;;;6.10;99.90;;;;;;6215252;23;20158;-76
2023/02/01 07:44:23;;;;;;;22.07;3.57;;;6.00;99.90;;;;;;6213920;23;20276;-75
2023/02/01 07:46:49;;;;;;;21.23;3.30;;;6.00;99.90;;;;;;6214709;23;20496;-76
2023/02/01 07:49:15;;;;;;;20.63;3.60;;;6.10;99.90;;;;;;6213988;23;20606;-76
2023/02/01 07:51:40;;;;;;;16.57;3.63;;;6.20;99.90;;;;;;6213615;23;20224;-75
2023/02/01 07:54:06;;;;;;;20.97;4.00;;;6.10;99.90;;;;;;6215408;23;20459;-75
2023/02/01 07:56:32;;;;;;;15.20;3.33;;;6.10;99.90;;;;;;6214433;23;20144;-75
2023/02/01 07:58:59;;;;;;;22.77;3.77;;;6.30;99.90;;;;;;6215316;23;20171;-75
2023/02/01 08:01:27;;;;;;;15.80;3.53;;;6.20;99.90;;;;;;6218054;23;20130;-75
2023/02/01 08:03:55;;;;;;;20.10;3.83;;;6.20;99.90;;;;;;6215271;23;20151;-75
2023/02/01 08:06:24;;;;;;;18.67;3.47;;;6.30;99.90;;;;;;6217100;23;20170;-75
2023/02/01 08:08:51;;;;;;;19.50;4.10;;;6.30;99.90;;;;;;6216956;23;20132;-75
2023/02/01 08:11:17;;;;;;;13.97;3.90;;;6.30;99.90;;;;;;6216883;23;20134;-75
2023/02/01 08:13:43;;;;;;;23.60;4.03;;;6.30;99.90;;;;;;6216702;23;20140;-75
2023/02/01 08:16:11;;;;;;;16.07;4.07;;;6.40;99.90;;;;;;6217282;23;20261;-75
2023/02/01 08:18:38;;;;;;;20.37;3.60;;;6.50;99.90;;;;;;6215472;23;20445;-75
2023/02/01 08:21:35;;;;;;;14.03;3.30;;;6.70;99.90;;;;;;6215572;23;20155;-75
2023/02/01 08:24:03;;;;;;;17.10;4.30;;;6.60;99.90;;;;;;6217058;23;20160;-75
2023/02/01 08:26:28;;;;;;;13.83;3.53;;;6.70;99.90;;;;;;6215438;23;20182;-75
2023/02/01 08:28:59;;;;;;;17.87;3.83;;;6.80;99.90;;;;;;6215233;23;20144;-76
2023/02/01 08:31:27;;;;;;;9.80;3.07;;;6.60;99.90;;;;;;6217005;23;20134;-76
2023/02/01 08:33:58;;;;;;;16.07;3.57;;;6.50;99.90;;;;;;6216369;23;20138;-75
2023/02/01 08:36:27;;;;;;;16.30;3.33;;;6.40;99.90;;;;;;6217187;23;20141;-76
2023/02/01 08:38:54;;;;;;;20.20;4.50;;;6.40;99.90;;;;;;6216897;23;20133;-75
2023/02/01 08:41:23;;;;;;;15.60;3.30;;;6.30;99.90;;;;;;6215154;23;20148;-75
2023/02/01 08:43:49;;;;;;;18.50;3.80;;;6.40;99.90;;;;;;6216721;23;20151;-75
2023/02/01 08:46:15;;;;;;;19.70;4.53;;;6.50;99.90;;;;;;6216779;23;20219;-76
2023/02/01 08:48:40;;;;;;;16.77;3.47;;;6.50;99.90;;;;;;6215425;23;20148;-75
2023/02/01 08:51:09;;;;;;;18.73;3.57;;;6.70;99.90;;;;;;6216680;23;20133;-75
2023/02/01 08:53:36;;;;;;;15.07;3.13;;;6.80;99.90;;;;;;6217155;23;20160;-75
2023/02/01 08:56:02;;;;;;;22.60;3.87;;;6.80;99.90;;;;;;6216758;23;20139;-75
2023/02/01 08:58:27;;;;;;;17.83;3.40;;;6.80;99.90;;;;;;6216565;23;20135;-76
2023/02/01 09:00:54;;;;;;;14.07;3.87;;;6.70;99.90;;;;;;6214725;23;20271;-76
2023/02/01 09:03:21;;;;;;;18.13;3.97;;;6.70;99.90;;;;;;6214944;23;20154;-75
2023/02/01 09:05:47;;;;;;;18.83;4.17;;;6.80;99.90;;;;;;6216421;23;20563;-75
2023/02/01 09:08:14;;;;;;;15.80;3.47;;;6.90;99.90;;;;;;6216505;23;20128;-76
2023/02/01 09:10:41;;;;;;;19.47;4.00;;;6.80;99.90;;;;;;6214832;23;20150;-76
2023/02/01 09:13:07;;;;;;;21.63;4.10;;;6.90;99.90;;;;;;6216870;23;20459;-75
2023/02/01 09:15:33;;;;;;;14.93;3.03;;;7.00;99.90;;;;;;6215525;23;20169;-75
2023/02/01 09:17:59;;;;;;;20.27;3.97;;;7.00;99.90;;;;;;6215202;23;20569;-75
2023/02/01 09:20:25;;;;;;;19.87;4.87;;;7.20;99.90;;;;;;6215618;23;20149;-76
2023/02/01 09:22:51;;;;;;;19.43;3.30;;;7.30;99.90;;;;;;6216869;23;20186;-75
2023/02/01 09:25:17;;;;;;;18.50;3.83;;;7.30;99.90;;;;;;6216969;23;20162;-75
2023/02/01 09:27:44;;;;;;;14.70;3.87;;;7.40;99.90;;;;;;6215310;23;20578;-75
2023/02/01 09:30:10;;;;;;;15.63;4.40;;;7.30;99.90;;;;;;6217070;23;20515;-75
2023/02/01 09:32:36;;;;;;;13.83;3.50;;;7.20;99.90;;;;;;6217342;23;20144;-76
2023/02/01 09:35:02;;;;;;;23.13;3.70;;;7.20;99.90;;;;;;6217691;23;20150;-75
2023/02/01 09:37:27;;;;;;;20.67;4.33;;;7.40;99.90;;;;;;6216151;23;20155;-75
2023/02/01 09:39:53;;;;;;;17.97;4.10;;;7.40;99.90;;;;;;6217904;23;20137;-76
2023/02/01 09:42:40;;;;;;;18.03;4.13;;;7.40;99.90;;;;;;6215968;23;20133;-75
2023/02/01 09:45:48;;;;;;;17.80;3.90;;;7.50;99.90;;;;;;6214634;23;20149;-75
2023/02/01 09:48:28;;;;;;;17.73;3.97;;;7.70;99.90;;;;;;6227646;23;20174;-76
2023/02/01 09:50:59;;;;;;;16.00;3.67;;;7.70;99.90;;;;;;6216795;23;20139;-75
2023/02/01 09:53:28;;;;;;;21.17;4.53;;;7.80;99.90;;;;;;6214700;23;20200;-75
2023/02/01 09:56:19;;;;;;;16.43;3.40;;;7.80;99.90;;;;;;6214312;23;20581;-75
2023/02/01 09:58:51;;;;;;;13.00;3.70;;;7.80;99.90;;;;;;6216131;23;20297;-75
2023/02/01 10:01:25;;;;;;;17.87;3.77;;;7.80;99.90;;;;;;6216239;23;20135;-75
2023/02/01 10:04:04;;;;;;;16.80;3.37;;;7.80;99.90;;;;;;6214508;23;20157;-76
2023/02/01 10:06:41;;;;;;;16.60;3.90;;;7.80;99.90;;;;;;6216166;23;20170;-75
2023/02/01 10:09:24;;;;;;;15.27;3.43;;;7.80;99.90;;;;;;6217272;23;20136;-76
2023/02/01 10:12:19;;;;;;;16.47;3.60;;;7.80;99.90;;;;;;6215887;23;20160;-76
2023/02/01 10:15:07;;;;;;;19.93;4.53;;;7.80;99.90;;;;;;6216407;23;20223;-76
2023/02/01 10:18:07;;;;;;;15.20;3.10;;;7.80;99.90;;;;;;6215946;23;20138;-76
2023/02/01 10:21:07;;;;;;;14.43;3.30;;;8.00;99.90;;;;;;6216868;23;20211;-76
2023/02/01 10:23:45;;;;;;;16.07;3.00;;;8.00;99.90;;;;;;6215209;23;20491;-76
2023/02/01 10:26:20;;;;;;;16.50;3.47;;;8.10;99.90;;;;;;6215573;23;20163;-76
2023/02/01 10:28:52;;;;;;;12.97;3.03;;;8.20;99.90;;;;;;6214622;23;20643;-76
2023/02/01 10:31:19;;;;;;;16.33;2.93;;;8.20;99.90;;;;;;6215580;23;20186;-76
2023/02/01 10:33:52;;;;;;;14.97;3.37;;;8.20;99.90;;;;;;6214287;23;20171;-76
2023/02/01 10:36:41;;;;;;;15.10;3.37;;;8.30;99.90;;;;;;6215910;23;20217;-76
2023/02/01 10:39:11;;;;;;;18.97;3.80;;;8.40;99.90;;;;;;6215706;23;20564;-76
2023/02/01 10:41:40;;;;;;;14.00;3.00;;;8.40;99.90;;;;;;6215865;23;20641;-76
2023/02/01 10:44:26;;;;;;;15.00;2.97;;;8.50;99.90;;;;;;6215459;23;20146;-76
2023/02/01 10:46:52;;;;;;;10.00;2.97;;;8.80;99.90;;;;;;6213835;23;20701;-76
2023/02/01 10:49:32;;;;;;;14.27;2.70;;;8.90;99.90;;;;;;6213963;23;20179;-76
2023/02/01 10:52:28;;;;;;;9.80;2.60;;;8.90;99.90;;;;;;6215237;23;20166;-76
2023/02/01 10:54:53;;;;;;;13.40;2.77;;;9.20;99.90;;;;;;6213817;23;20140;-76
2023/02/01 10:57:25;;;;;;;13.27;3.23;;;9.30;99.90;;;;;;6215367;23;20150;-74
2023/02/01 10:59:52;;;;;;;14.07;2.77;;;9.50;99.90;;;;;;6213912;23;20570;-74
2023/02/01 11:02:34;;;;;;;12.80;2.37;;;9.80;99.90;;;;;;6215314;23;20137;-74
2023/02/01 11:05:08;;;;;;;14.03;2.47;;;9.90;99.90;;;;;;6213834;23;20577;-75
2023/02/01 11:07:34;;;;;;;15.03;2.40;;;9.80;99.90;;;;;;6215411;23;20159;-75
2023/02/01 11:10:01;;;;;;;13.07;3.33;;;9.60;99.90;;;;;;6213654;23;20179;-75
2023/02/01 11:12:35;;;;;;;15.10;3.53;;;9.70;99.90;;;;;;6215510;23;20150;-75
2023/02/01 11:15:22;;;;;;;18.77;3.53;;;9.60;99.90;;;;;;6213129;23;20154;-74
2023/02/01 11:17:51;;;;;;;11.70;2.40;;;9.60;99.90;;;;;;6215133;23;20477;-75
2023/02/01 11:20:20;;;;;;;15.00;2.80;;;9.70;99.90;;;;;;6213968;23;20157;-74
2023/02/01 11:22:54;;;;;;;11.43;2.43;;;9.80;99.90;;;;;;6212983;23;20497;-75
2023/02/01 11:25:20;;;;;;;16.77;2.67;;;9.90;99.90;;;;;;6213321;23;20159;-76
2023/02/01 11:27:48;;;;;;;13.13;2.53;;;10.00;99.90;;;;;;6215205;23;20163;-76
2023/02/01 11:30:22;;;;;;;15.20;2.37;;;10.00;99.90;;;;;;6213788;23;20148;-76
2023/02/01 11:32:49;;;;;;;10.80;2.50;;;10.10;99.90;;;;;;6215058;23;20139;-75
2023/02/01 11:35:20;;;;;;;17.40;3.20;;;9.90;99.90;;;;;;6213446;23;20147;-75
2023/02/01 11:37:54;;;;;;;8.27;2.17;;;9.90;99.90;;;;;;6214813;23;20194;-75
2023/02/01 11:40:20;;;;;;;13.03;2.27;;;9.70;99.90;;;;;;6215245;23;20146;-76
2023/02/01 11:43:01;;;;;;;11.53;2.33;;;9.50;99.90;;;;;;6215346;23;20128;-76
2023/02/01 11:45:34;;;;;;;15.17;2.43;;;9.50;99.90;;;;;;6215183;23;20148;-75
2023/02/01 11:48:00;;;;;;;12.60;2.77;;;9.50;99.90;;;;;;6213398;23;20639;-75
2023/02/01 11:50:47;;;;;;;11.60;2.33;;;9.40;99.90;;;;;;6215444;23;20178;-75
2023/02/01 11:53:36;;;;;;;7.90;2.20;;;9.60;99.90;;;;;;6213035;23;20242;-75
2023/02/01 11:56:33;;;;;;;14.33;2.87;;;9.60;99.90;;;;;;6215147;23;20167;-74
2023/02/01 11:59:12;;;;;;;10.43;2.00;;;10.10;99.90;;;;;;6210451;23;20195;-76
2023/02/01 12:01:59;;;;;;;6.07;1.90;;;10.50;99.90;;;;;;6211780;23;20582;-75
2023/02/01 12:04:57;;;;;;;8.67;2.07;;;10.80;99.90;;;;;;6212543;23;20545;-76
2023/02/01 12:07:34;;;;;;;11.80;1.80;;;10.80;99.90;;;;;;6213734;23;20171;-76
2023/02/01 12:10:05;;;;;;;6.90;1.60;;;10.80;99.90;;;;;;6211884;23;20205;-75
2023/02/01 12:12:37;;;;;;;9.20;2.10;;;10.50;99.90;;;;;;6213390;23;20129;-74
2023/02/01 12:15:19;;;;;;;11.50;1.77;;;10.40;99.90;;;;;;6212819;23;20183;-75
2023/02/01 12:18:03;;;;;;;13.30;2.27;;;10.40;99.90;;;;;;6213433;23;20137;-76
2023/02/01 12:20:45;;;;;;;7.37;2.00;;;10.90;99.90;;;;;;6211554;23;20171;-76
2023/02/01 12:23:32;;;;;;;7.33;1.90;;;11.40;99.90;;;;;;6213602;23;20134;-76
2023/02/01 12:26:16;;;;;;;12.30;2.83;;;11.60;99.90;;;;;;6211588;23;20152;-76
2023/02/01 12:28:48;;;;;;;12.27;2.17;;;11.80;99.90;;;;;;6213693;23;20136;-75
2023/02/01 12:31:28;;;;;;;12.33;1.73;;;11.70;99.90;;;;;;6213393;23;20570;-75
2023/02/01 12:34:15;;;;;;;9.73;1.90;;;12.00;99.90;;;;;;6211872;23;20151;-76
2023/02/01 12:37:06;;;;;;;10.53;2.17;;;12.00;99.90;;;;;;6211772;23;20155;-74
2023/02/01 12:39:41;;;;;;;6.93;1.90;;;12.10;99.90;;;;;;6211866;23;20478;-74
2023/02/01 12:42:11;;;;;;;7.37;1.63;;;12.10;99.90;;;;;;6212512;23;20201;-74
2023/02/01 12:44:51;;;;;;;4.93;1.70;;;11.80;99.90;;;;;;6215236;23;20138;-75
2023/02/01 12:47:30;;;;;;;6.13;1.20;;;12.00;99.90;;;;;;6214751;23;20189;-74
2023/02/01 12:50:21;;;;;;;7.67;1.90;;;12.40;99.90;;;;;;6214691;23;20220;-75
2023/02/01 12:52:53;;;;;;;8.23;1.67;;;12.60;99.90;;;;;;6216842;23;20187;-74
2023/02/01 12:55:36;;;;;;;8.27;2.03;;;12.80;99.90;;;;;;6216614;23;20135;-75
2023/02/01 12:58:13;;;;;;;7.00;1.47;;;13.00;99.90;;;;;;6216439;23;20143;-75
2023/02/01 13:01:22;;;;;;;8.37;1.57;;;13.20;99.90;;;;;;6216606;23;20188;-74
2023/02/01 13:04:11;;;;;;;7.03;1.40;;;12.90;99.90;;;;;;6216481;23;20131;-75
2023/02/01 13:06:51;;;;;;;10.63;2.03;;;12.50;99.90;;;;;;6216659;23;20503;-74
2023/02/01 13:09:28;;;;;;;7.50;1.70;;;12.30;99.90;;;;;;6216351;23;20134;-75
2023/02/01 13:11:59;;;;;;;7.83;1.37;;;12.10;99.90;;;;;;6216344;23;20139;-74
2023/02/01 13:14:35;;;;;;;6.10;1.43;;;12.00;99.90;;;;;;6216248;23;20133;-75
2023/02/01 13:17:20;;;;;;;8.33;2.03;;;11.90;99.90;;;;;;6214610;23;20149;-75
2023/02/01 13:19:55;;;;;;;5.27;1.67;;;11.80;99.90;;;;;;6215776;23;20166;-74
2023/02/01 13:22:32;;;;;;;8.70;1.47;;;11.70;99.90;;;;;;6214006;23;20222;-74
2023/02/01 13:25:02;;;;;;;11.53;2.33;;;11.60;99.90;;;;;;6215948;23;20263;-74
2023/02/01 13:27:37;;;;;;;6.63;1.40;;;11.60;99.90;;;;;;6216304;23;20177;-73
2023/02/01 13:30:12;;;;;;;9.13;1.60;;;11.40;99.90;;;;;;6215846;23;20136;-74
2023/02/01 13:33:05;;;;;;;5.60;1.80;;;11.50;99.90;;;;;;6215892;23;20151;-74
2023/02/01 13:36:02;;;;;;;5.40;1.60;;;11.30;99.90;;;;;;6215395;23;20140;-74